sensor_id;sensor_type;location;lat;lon;timestamp;temperature;humidity
5556;DHT22;2801;50.972;7.856;2024-03-29T00:01:26;5.20;99.90
5556;DHT22;2801;50.972;7.856;2024-03-29T00:03:53;5.20;99.90
5556;DHT22;2801;50.972;7.856;2024-03-29T00:06:20;5.10;99.90
5556;DHT22;2801;50.972;7.856;2024-03-29T00:08:46;5.10;99.90
5556;DHT22;2801;50.972;7.856;2024-03-29T00:11:12;5.10;99.90
5556;DHT22;2801;50.972;7.856;2024-03-29T00:13:39;5.10;99.90
5556;DHT22;2801;50.972;7.856;2024-03-29T00:16:06;5.00;99.90
5556;DHT22;2801;50.972;7.856;2024-03-29T00:18:33;5.10;99.90
5556;DHT22;2801;50.972;7.856;2024-03-29T00:20:59;5.00;99.90
5556;DHT22;2801;50.972;7.856;2024-03-29T00:23:25;5.00;99.90
5556;DHT22;2801;50.972;7.856;2024-03-29T00:25:52;4.90;99.90
5556;DHT22;2801;50.972;7.856;2024-03-29T00:28:18;4.90;99.90
5556;DHT22;2801;50.972;7.856;2024-03-29T00:30:44;4.80;99.90
5556;DHT22;2801;50.972;7.856;2024-03-29T00:33:11;4.70;99.90
5556;DHT22;2801;50.972;7.856;2024-03-29T00:35:37;4.70;99.90
5556;DHT22;2801;50.972;7.856;2024-03-29T00:38:03;4.60;99.90
5556;DHT22;2801;50.972;7.856;2024-03-29T00:40:30;4.60;99.90
5556;DHT22;2801;50.972;7.856;2024-03-29T00:42:56;4.50;99.90
5556;DHT22;2801;50.972;7.856;2024-03-29T00:45:22;4.40;99.90
5556;DHT22;2801;50.972;7.856;2024-03-29T00:47:48;4.40;99.90
5556;DHT22;2801;50.972;7.856;2024-03-29T00:50:15;4.40;99.90
5556;DHT22;2801;50.972;7.856;2024-03-29T00:52:41;4.50;99.90
5556;DHT22;2801;50.972;7.856;2024-03-29T00:55:07;4.50;99.90
5556;DHT22;2801;50.972;7.856;2024-03-29T00:57:34;4.60;99.90
5556;DHT22;2801;50.972;7.856;2024-03-29T01:00:00;4.70;99.90
5556;DHT22;2801;50.972;7.856;2024-03-29T01:02:26;4.70;99.90
5556;DHT22;2801;50.972;7.856;2024-03-29T01:04:52;4.80;99.90
5556;DHT22;2801;50.972;7.856;2024-03-29T01:07:19;4.80;99.90
5556;DHT22;2801;50.972;7.856;2024-03-29T01:09:45;4.90;99.90
5556;DHT22;2801;50.972;7.856;2024-03-29T01:12:11;4.90;99.90
5556;DHT22;2801;50.972;7.856;2024-03-29T01:14:37;5.00;99.90
5556;DHT22;2801;50.972;7.856;2024-03-29T01:17:04;5.00;99.90
5556;DHT22;2801;50.972;7.856;2024-03-29T01:19:32;5.10;99.90
5556;DHT22;2801;50.972;7.856;2024-03-29T01:21:58;5.10;99.90
5556;DHT22;2801;50.972;7.856;2024-03-29T01:24:25;5.20;99.90
5556;DHT22;2801;50.972;7.856;2024-03-29T01:26:51;5.30;99.90
5556;DHT22;2801;50.972;7.856;2024-03-29T01:29:17;5.30;99.90
5556;DHT22;2801;50.972;7.856;2024-03-29T01:31:43;5.30;99.90
5556;DHT22;2801;50.972;7.856;2024-03-29T01:34:09;5.40;99.90
5556;DHT22;2801;50.972;7.856;2024-03-29T01:36:36;5.30;99.90
5556;DHT22;2801;50.972;7.856;2024-03-29T01:39:03;5.50;99.90
5556;DHT22;2801;50.972;7.856;2024-03-29T01:41:29;5.50;99.90
5556;DHT22;2801;50.972;7.856;2024-03-29T01:43:55;5.60;99.90
5556;DHT22;2801;50.972;7.856;2024-03-29T01:46:23;5.60;99.90
5556;DHT22;2801;50.972;7.856;2024-03-29T01:48:53;5.70;99.90
5556;DHT22;2801;50.972;7.856;2024-03-29T01:51:21;5.70;99.90
5556;DHT22;2801;50.972;7.856;2024-03-29T01:53:50;5.70;99.90
5556;DHT22;2801;50.972;7.856;2024-03-29T01:56:22;5.70;99.90
5556;DHT22;2801;50.972;7.856;2024-03-29T01:58:50;5.70;99.90
5556;DHT22;2801;50.972;7.856;2024-03-29T02:01:20;5.70;99.90
5556;DHT22;2801;50.972;7.856;2024-03-29T02:03:47;5.70;99.90
5556;DHT22;2801;50.972;7.856;2024-03-29T02:06:14;5.70;99.90
5556;DHT22;2801;50.972;7.856;2024-03-29T02:08:42;5.80;99.90
5556;DHT22;2801;50.972;7.856;2024-03-29T02:11:09;5.70;99.90
5556;DHT22;2801;50.972;7.856;2024-03-29T02:13:35;5.80;99.90
5556;DHT22;2801;50.972;7.856;2024-03-29T02:16:02;5.90;99.90
5556;DHT22;2801;50.972;7.856;2024-03-29T02:18:29;5.90;99.90
5556;DHT22;2801;50.972;7.856;2024-03-29T02:20:55;6.00;99.90
5556;DHT22;2801;50.972;7.856;2024-03-29T02:23:26;6.10;99.90
5556;DHT22;2801;50.972;7.856;2024-03-29T02:25:55;6.20;99.90
5556;DHT22;2801;50.972;7.856;2024-03-29T02:28:22;6.10;99.90
5556;DHT22;2801;50.972;7.856;2024-03-29T02:30:52;6.20;99.90
5556;DHT22;2801;50.972;7.856;2024-03-29T02:33:21;6.20;99.90
5556;DHT22;2801;50.972;7.856;2024-03-29T02:35:47;6.20;99.90
5556;DHT22;2801;50.972;7.856;2024-03-29T02:38:15;6.20;99.90
5556;DHT22;2801;50.972;7.856;2024-03-29T02:40:41;6.00;99.90
5556;DHT22;2801;50.972;7.856;2024-03-29T02:43:07;6.00;99.90
5556;DHT22;2801;50.972;7.856;2024-03-29T02:45:33;6.10;99.90
5556;DHT22;2801;50.972;7.856;2024-03-29T02:47:59;6.00;99.90
5556;DHT22;2801;50.972;7.856;2024-03-29T02:50:25;6.00;99.90
5556;DHT22;2801;50.972;7.856;2024-03-29T02:52:51;6.00;99.90
5556;DHT22;2801;50.972;7.856;2024-03-29T02:55:17;6.00;99.90
5556;DHT22;2801;50.972;7.856;2024-03-29T02:57:43;6.10;99.90
5556;DHT22;2801;50.972;7.856;2024-03-29T03:00:10;6.10;99.90
5556;DHT22;2801;50.972;7.856;2024-03-29T03:02:40;6.10;99.90
5556;DHT22;2801;50.972;7.856;2024-03-29T03:05:07;6.10;99.90
5556;DHT22;2801;50.972;7.856;2024-03-29T03:07:36;6.10;99.90
5556;DHT22;2801;50.972;7.856;2024-03-29T03:10:21;6.10;99.90
5556;DHT22;2801;50.972;7.856;2024-03-29T03:13:06;6.10;99.90
5556;DHT22;2801;50.972;7.856;2024-03-29T03:15:32;6.10;99.90
5556;DHT22;2801;50.972;7.856;2024-03-29T03:17:58;6.20;99.90
5556;DHT22;2801;50.972;7.856;2024-03-29T03:20:25;6.10;99.90
5556;DHT22;2801;50.972;7.856;2024-03-29T03:22:56;6.20;99.90
5556;DHT22;2801;50.972;7.856;2024-03-29T03:25:26;6.10;99.90
5556;DHT22;2801;50.972;7.856;2024-03-29T03:27:53;6.10;99.90
5556;DHT22;2801;50.972;7.856;2024-03-29T03:30:19;6.10;99.90
5556;DHT22;2801;50.972;7.856;2024-03-29T03:32:46;6.00;99.90
5556;DHT22;2801;50.972;7.856;2024-03-29T03:35:12;6.10;99.90
5556;DHT22;2801;50.972;7.856;2024-03-29T03:37:38;6.10;99.90
5556;DHT22;2801;50.972;7.856;2024-03-29T03:40:05;6.30;99.90
5556;DHT22;2801;50.972;7.856;2024-03-29T03:42:33;6.10;99.90
5556;DHT22;2801;50.972;7.856;2024-03-29T03:44:59;6.20;99.90
5556;DHT22;2801;50.972;7.856;2024-03-29T03:47:25;6.30;99.90
5556;DHT22;2801;50.972;7.856;2024-03-29T03:49:52;6.30;99.90
5556;DHT22;2801;50.972;7.856;2024-03-29T03:52:18;6.30;99.90
5556;DHT22;2801;50.972;7.856;2024-03-29T03:54:44;6.40;99.90
5556;DHT22;2801;50.972;7.856;2024-03-29T03:57:10;6.40;99.90
5556;DHT22;2801;50.972;7.856;2024-03-29T03:59:37;6.50;99.90
5556;DHT22;2801;50.972;7.856;2024-03-29T04:02:03;6.40;99.90
5556;DHT22;2801;50.972;7.856;2024-03-29T04:04:33;6.40;99.90
5556;DHT22;2801;50.972;7.856;2024-03-29T04:06:59;6.40;99.90
5556;DHT22;2801;50.972;7.856;2024-03-29T04:09:25;6.20;99.90
5556;DHT22;2801;50.972;7.856;2024-03-29T04:11:52;6.20;99.90
5556;DHT22;2801;50.972;7.856;2024-03-29T04:14:18;6.10;99.90
5556;DHT22;2801;50.972;7.856;2024-03-29T04:16:44;6.10;99.90
5556;DHT22;2801;50.972;7.856;2024-03-29T04:19:12;6.10;99.90
5556;DHT22;2801;50.972;7.856;2024-03-29T04:21:38;5.90;99.90
5556;DHT22;2801;50.972;7.856;2024-03-29T04:24:04;5.80;99.90
5556;DHT22;2801;50.972;7.856;2024-03-29T04:26:33;5.90;99.90
5556;DHT22;2801;50.972;7.856;2024-03-29T04:28:59;5.70;99.90
5556;DHT22;2801;50.972;7.856;2024-03-29T04:31:25;5.70;99.90
5556;DHT22;2801;50.972;7.856;2024-03-29T04:33:51;5.50;99.90
5556;DHT22;2801;50.972;7.856;2024-03-29T04:36:17;5.50;99.90
5556;DHT22;2801;50.972;7.856;2024-03-29T04:38:44;5.40;99.90
5556;DHT22;2801;50.972;7.856;2024-03-29T04:41:10;5.40;99.90
5556;DHT22;2801;50.972;7.856;2024-03-29T04:43:37;5.30;99.90
5556;DHT22;2801;50.972;7.856;2024-03-29T04:46:04;5.30;99.90
5556;DHT22;2801;50.972;7.856;2024-03-29T04:48:44;5.30;99.90
5556;DHT22;2801;50.972;7.856;2024-03-29T04:51:12;5.30;99.90
5556;DHT22;2801;50.972;7.856;2024-03-29T04:53:39;5.20;99.90
5556;DHT22;2801;50.972;7.856;2024-03-29T04:56:06;5.20;99.90
5556;DHT22;2801;50.972;7.856;2024-03-29T04:58:32;5.20;99.90
5556;DHT22;2801;50.972;7.856;2024-03-29T05:00:59;5.20;99.90
5556;DHT22;2801;50.972;7.856;2024-03-29T05:03:25;5.10;99.90
5556;DHT22;2801;50.972;7.856;2024-03-29T05:05:52;5.10;99.90
5556;DHT22;2801;50.972;7.856;2024-03-29T05:08:19;5.10;99.90
5556;DHT22;2801;50.972;7.856;2024-03-29T05:10:48;5.10;99.90
5556;DHT22;2801;50.972;7.856;2024-03-29T05:13:17;5.10;99.90
5556;DHT22;2801;50.972;7.856;2024-03-29T05:15:48;5.10;99.90
5556;DHT22;2801;50.972;7.856;2024-03-29T05:18:15;5.10;99.90
5556;DHT22;2801;50.972;7.856;2024-03-29T05:20:41;5.10;99.90
5556;DHT22;2801;50.972;7.856;2024-03-29T05:23:14;5.20;99.90
5556;DHT22;2801;50.972;7.856;2024-03-29T05:25:41;5.20;99.90
5556;DHT22;2801;50.972;7.856;2024-03-29T05:28:08;5.20;99.90
5556;DHT22;2801;50.972;7.856;2024-03-29T05:30:35;5.20;99.90
5556;DHT22;2801;50.972;7.856;2024-03-29T05:33:05;5.20;99.90
5556;DHT22;2801;50.972;7.856;2024-03-29T05:35:33;5.20;99.90
5556;DHT22;2801;50.972;7.856;2024-03-29T05:37:59;5.20;99.90
5556;DHT22;2801;50.972;7.856;2024-03-29T05:40:25;5.30;99.90
5556;DHT22;2801;50.972;7.856;2024-03-29T05:42:54;5.30;99.90
5556;DHT22;2801;50.972;7.856;2024-03-29T05:45:28;5.30;99.90
5556;DHT22;2801;50.972;7.856;2024-03-29T05:47:57;5.40;99.90
5556;DHT22;2801;50.972;7.856;2024-03-29T05:50:25;5.40;99.90
5556;DHT22;2801;50.972;7.856;2024-03-29T05:52:52;5.40;99.90
5556;DHT22;2801;50.972;7.856;2024-03-29T05:55:18;5.50;99.90
5556;DHT22;2801;50.972;7.856;2024-03-29T05:57:45;5.50;99.90
5556;DHT22;2801;50.972;7.856;2024-03-29T06:00:13;5.50;99.90
5556;DHT22;2801;50.972;7.856;2024-03-29T06:02:41;5.60;99.90
5556;DHT22;2801;50.972;7.856;2024-03-29T06:05:10;5.70;99.90
5556;DHT22;2801;50.972;7.856;2024-03-29T06:07:37;5.80;99.90
5556;DHT22;2801;50.972;7.856;2024-03-29T06:10:04;5.70;99.90
5556;DHT22;2801;50.972;7.856;2024-03-29T06:12:34;5.70;99.90
5556;DHT22;2801;50.972;7.856;2024-03-29T06:15:02;5.90;99.90
5556;DHT22;2801;50.972;7.856;2024-03-29T06:17:47;6.00;99.90
5556;DHT22;2801;50.972;7.856;2024-03-29T06:20:13;6.00;99.90
5556;DHT22;2801;50.972;7.856;2024-03-29T06:22:40;6.00;99.90
5556;DHT22;2801;50.972;7.856;2024-03-29T06:25:06;6.00;99.90
5556;DHT22;2801;50.972;7.856;2024-03-29T06:27:34;6.10;99.90
5556;DHT22;2801;50.972;7.856;2024-03-29T06:30:01;6.20;99.90
5556;DHT22;2801;50.972;7.856;2024-03-29T06:32:33;6.20;99.90
5556;DHT22;2801;50.972;7.856;2024-03-29T06:34:59;6.30;99.90
5556;DHT22;2801;50.972;7.856;2024-03-29T06:37:26;6.40;99.90
5556;DHT22;2801;50.972;7.856;2024-03-29T06:39:54;6.30;99.90
5556;DHT22;2801;50.972;7.856;2024-03-29T06:42:20;6.30;99.90
5556;DHT22;2801;50.972;7.856;2024-03-29T06:44:47;6.40;99.90
5556;DHT22;2801;50.972;7.856;2024-03-29T06:47:13;6.30;99.90
5556;DHT22;2801;50.972;7.856;2024-03-29T06:49:39;6.40;99.90
5556;DHT22;2801;50.972;7.856;2024-03-29T06:52:05;6.40;99.90
5556;DHT22;2801;50.972;7.856;2024-03-29T06:54:31;6.50;99.90
5556;DHT22;2801;50.972;7.856;2024-03-29T06:57:03;6.60;99.90
5556;DHT22;2801;50.972;7.856;2024-03-29T06:59:30;6.50;99.90
5556;DHT22;2801;50.972;7.856;2024-03-29T07:01:56;6.60;99.90
5556;DHT22;2801;50.972;7.856;2024-03-29T07:04:24;6.60;99.90
5556;DHT22;2801;50.972;7.856;2024-03-29T07:06:51;6.60;99.90
5556;DHT22;2801;50.972;7.856;2024-03-29T07:09:22;6.70;99.90
5556;DHT22;2801;50.972;7.856;2024-03-29T07:11:50;6.80;99.90
5556;DHT22;2801;50.972;7.856;2024-03-29T07:14:18;6.50;99.90
5556;DHT22;2801;50.972;7.856;2024-03-29T07:16:45;6.70;99.90
5556;DHT22;2801;50.972;7.856;2024-03-29T07:19:12;6.80;99.90
5556;DHT22;2801;50.972;7.856;2024-03-29T07:21:40;6.70;99.90
5556;DHT22;2801;50.972;7.856;2024-03-29T07:24:06;6.80;99.90
5556;DHT22;2801;50.972;7.856;2024-03-29T07:26:33;6.90;99.90
5556;DHT22;2801;50.972;7.856;2024-03-29T07:28:59;7.00;99.90
5556;DHT22;2801;50.972;7.856;2024-03-29T07:31:26;7.10;99.90
5556;DHT22;2801;50.972;7.856;2024-03-29T07:33:52;7.00;99.90
5556;DHT22;2801;50.972;7.856;2024-03-29T07:36:19;7.10;99.90
5556;DHT22;2801;50.972;7.856;2024-03-29T07:38:45;7.20;99.90
5556;DHT22;2801;50.972;7.856;2024-03-29T07:41:11;7.10;99.90
5556;DHT22;2801;50.972;7.856;2024-03-29T07:43:57;7.10;99.90
5556;DHT22;2801;50.972;7.856;2024-03-29T07:46:31;7.20;99.90
5556;DHT22;2801;50.972;7.856;2024-03-29T07:48:58;7.10;99.90
5556;DHT22;2801;50.972;7.856;2024-03-29T07:51:24;7.20;99.90
5556;DHT22;2801;50.972;7.856;2024-03-29T07:53:51;7.30;99.90
5556;DHT22;2801;50.972;7.856;2024-03-29T07:56:18;7.30;99.90
5556;DHT22;2801;50.972;7.856;2024-03-29T07:58:44;7.40;99.90
5556;DHT22;2801;50.972;7.856;2024-03-29T08:01:17;7.30;99.90
5556;DHT22;2801;50.972;7.856;2024-03-29T08:03:43;7.40;99.90
5556;DHT22;2801;50.972;7.856;2024-03-29T08:06:10;7.50;99.90
5556;DHT22;2801;50.972;7.856;2024-03-29T08:08:36;7.50;99.90
5556;DHT22;2801;50.972;7.856;2024-03-29T08:11:02;7.40;99.90
5556;DHT22;2801;50.972;7.856;2024-03-29T08:13:28;7.50;99.90
5556;DHT22;2801;50.972;7.856;2024-03-29T08:15:58;7.50;99.90
5556;DHT22;2801;50.972;7.856;2024-03-29T08:18:27;7.40;99.90
5556;DHT22;2801;50.972;7.856;2024-03-29T08:20:54;7.60;99.90
5556;DHT22;2801;50.972;7.856;2024-03-29T08:23:28;7.70;99.90
5556;DHT22;2801;50.972;7.856;2024-03-29T08:25:55;7.50;99.90
5556;DHT22;2801;50.972;7.856;2024-03-29T08:28:24;7.70;99.90
5556;DHT22;2801;50.972;7.856;2024-03-29T08:31:03;7.70;99.90
5556;DHT22;2801;50.972;7.856;2024-03-29T08:33:31;7.90;99.90
5556;DHT22;2801;50.972;7.856;2024-03-29T08:35:57;7.90;99.90
5556;DHT22;2801;50.972;7.856;2024-03-29T08:38:24;8.00;99.90
5556;DHT22;2801;50.972;7.856;2024-03-29T08:40:51;8.10;99.90
5556;DHT22;2801;50.972;7.856;2024-03-29T08:43:17;8.00;99.90
5556;DHT22;2801;50.972;7.856;2024-03-29T08:45:44;8.10;99.90
5556;DHT22;2801;50.972;7.856;2024-03-29T08:48:11;8.20;99.90
5556;DHT22;2801;50.972;7.856;2024-03-29T08:50:37;8.30;99.90
5556;DHT22;2801;50.972;7.856;2024-03-29T08:53:04;8.30;99.90
5556;DHT22;2801;50.972;7.856;2024-03-29T08:55:31;8.30;99.90
5556;DHT22;2801;50.972;7.856;2024-03-29T08:57:59;8.20;99.90
5556;DHT22;2801;50.972;7.856;2024-03-29T09:00:27;8.30;99.90
5556;DHT22;2801;50.972;7.856;2024-03-29T09:02:54;8.20;99.90
5556;DHT22;2801;50.972;7.856;2024-03-29T09:05:22;8.10;99.90
5556;DHT22;2801;50.972;7.856;2024-03-29T09:07:49;8.20;99.90
5556;DHT22;2801;50.972;7.856;2024-03-29T09:10:16;8.20;99.90
5556;DHT22;2801;50.972;7.856;2024-03-29T09:12:43;8.30;99.90
5556;DHT22;2801;50.972;7.856;2024-03-29T09:15:09;8.20;99.90
5556;DHT22;2801;50.972;7.856;2024-03-29T09:17:45;8.20;99.90
5556;DHT22;2801;50.972;7.856;2024-03-29T09:20:12;8.20;99.90
5556;DHT22;2801;50.972;7.856;2024-03-29T09:22:39;8.20;99.90
5556;DHT22;2801;50.972;7.856;2024-03-29T09:25:06;8.30;99.90
5556;DHT22;2801;50.972;7.856;2024-03-29T09:27:36;8.30;99.90
5556;DHT22;2801;50.972;7.856;2024-03-29T09:30:06;8.30;99.90
5556;DHT22;2801;50.972;7.856;2024-03-29T09:32:33;8.30;99.90
5556;DHT22;2801;50.972;7.856;2024-03-29T09:35:00;8.40;99.90
5556;DHT22;2801;50.972;7.856;2024-03-29T09:37:27;8.40;99.90
5556;DHT22;2801;50.972;7.856;2024-03-29T09:39:54;8.50;99.90
5556;DHT22;2801;50.972;7.856;2024-03-29T09:42:22;8.50;99.90
5556;DHT22;2801;50.972;7.856;2024-03-29T09:44:51;8.50;99.90
5556;DHT22;2801;50.972;7.856;2024-03-29T09:47:20;8.50;99.90
5556;DHT22;2801;50.972;7.856;2024-03-29T09:49:49;8.60;99.90
5556;DHT22;2801;50.972;7.856;2024-03-29T09:52:17;8.60;99.90
5556;DHT22;2801;50.972;7.856;2024-03-29T09:54:45;8.50;99.90
5556;DHT22;2801;50.972;7.856;2024-03-29T09:57:12;8.60;99.90
5556;DHT22;2801;50.972;7.856;2024-03-29T09:59:39;8.60;99.90
5556;DHT22;2801;50.972;7.856;2024-03-29T10:02:14;8.60;99.90
5556;DHT22;2801;50.972;7.856;2024-03-29T10:04:44;8.60;99.90
5556;DHT22;2801;50.972;7.856;2024-03-29T10:07:12;8.80;99.90
5556;DHT22;2801;50.972;7.856;2024-03-29T10:09:41;8.70;99.90
5556;DHT22;2801;50.972;7.856;2024-03-29T10:12:09;8.70;99.90
5556;DHT22;2801;50.972;7.856;2024-03-29T10:14:49;8.70;99.90
5556;DHT22;2801;50.972;7.856;2024-03-29T10:17:19;8.80;99.90
5556;DHT22;2801;50.972;7.856;2024-03-29T10:19:46;8.80;99.90
5556;DHT22;2801;50.972;7.856;2024-03-29T10:22:13;8.80;99.90
5556;DHT22;2801;50.972;7.856;2024-03-29T10:24:39;8.90;99.90
5556;DHT22;2801;50.972;7.856;2024-03-29T10:27:05;8.90;99.90
5556;DHT22;2801;50.972;7.856;2024-03-29T10:29:32;9.00;99.90
5556;DHT22;2801;50.972;7.856;2024-03-29T10:31:58;8.80;99.90
5556;DHT22;2801;50.972;7.856;2024-03-29T10:34:27;8.90;99.90
5556;DHT22;2801;50.972;7.856;2024-03-29T10:37:01;8.90;99.90
5556;DHT22;2801;50.972;7.856;2024-03-29T10:39:31;9.00;99.90
5556;DHT22;2801;50.972;7.856;2024-03-29T10:41:59;9.00;99.90
5556;DHT22;2801;50.972;7.856;2024-03-29T10:44:28;9.00;99.90
5556;DHT22;2801;50.972;7.856;2024-03-29T10:46:56;9.00;99.90
5556;DHT22;2801;50.972;7.856;2024-03-29T10:49:24;9.10;99.90
5556;DHT22;2801;50.972;7.856;2024-03-29T10:51:55;9.10;99.90
5556;DHT22;2801;50.972;7.856;2024-03-29T10:54:25;9.20;99.90
5556;DHT22;2801;50.972;7.856;2024-03-29T10:56:59;9.30;99.90
5556;DHT22;2801;50.972;7.856;2024-03-29T10:59:46;9.40;99.90
5556;DHT22;2801;50.972;7.856;2024-03-29T11:05:03;9.40;99.90
5556;DHT22;2801;50.972;7.856;2024-03-29T11:07:38;9.50;99.90
5556;DHT22;2801;50.972;7.856;2024-03-29T11:10:06;9.60;99.90
5556;DHT22;2801;50.972;7.856;2024-03-29T11:13:10;9.70;99.90
5556;DHT22;2801;50.972;7.856;2024-03-29T11:15:44;9.80;99.90
5556;DHT22;2801;50.972;7.856;2024-03-29T11:18:16;9.80;99.90
5556;DHT22;2801;50.972;7.856;2024-03-29T11:20:48;9.90;99.90
5556;DHT22;2801;50.972;7.856;2024-03-29T11:23:21;9.90;99.90
5556;DHT22;2801;50.972;7.856;2024-03-29T11:25:52;9.90;99.90
5556;DHT22;2801;50.972;7.856;2024-03-29T11:28:28;10.00;99.90
5556;DHT22;2801;50.972;7.856;2024-03-29T11:31:07;10.00;99.90
5556;DHT22;2801;50.972;7.856;2024-03-29T11:36:11;10.10;99.90
5556;DHT22;2801;50.972;7.856;2024-03-29T11:38:40;10.10;99.90
5556;DHT22;2801;50.972;7.856;2024-03-29T11:41:14;10.10;99.90
5556;DHT22;2801;50.972;7.856;2024-03-29T11:43:44;10.10;99.90
5556;DHT22;2801;50.972;7.856;2024-03-29T11:46:12;10.00;99.90
5556;DHT22;2801;50.972;7.856;2024-03-29T11:48:40;10.20;99.90
5556;DHT22;2801;50.972;7.856;2024-03-29T11:51:08;10.20;99.90
5556;DHT22;2801;50.972;7.856;2024-03-29T11:53:38;10.30;99.90
5556;DHT22;2801;50.972;7.856;2024-03-29T11:56:06;10.30;99.90
5556;DHT22;2801;50.972;7.856;2024-03-29T11:58:34;10.40;99.90
5556;DHT22;2801;50.972;7.856;2024-03-29T12:01:01;10.70;99.90
5556;DHT22;2801;50.972;7.856;2024-03-29T12:03:29;10.90;99.90
5556;DHT22;2801;50.972;7.856;2024-03-29T12:05:59;10.90;99.90
5556;DHT22;2801;50.972;7.856;2024-03-29T12:08:33;11.00;99.90
5556;DHT22;2801;50.972;7.856;2024-03-29T12:11:01;11.10;99.90
5556;DHT22;2801;50.972;7.856;2024-03-29T12:13:29;11.10;99.90
5556;DHT22;2801;50.972;7.856;2024-03-29T12:15:57;11.10;99.90
5556;DHT22;2801;50.972;7.856;2024-03-29T12:18:24;11.30;99.90
5556;DHT22;2801;50.972;7.856;2024-03-29T12:20:56;11.30;99.90
5556;DHT22;2801;50.972;7.856;2024-03-29T12:23:22;11.50;99.90
5556;DHT22;2801;50.972;7.856;2024-03-29T12:25:50;11.70;99.90
5556;DHT22;2801;50.972;7.856;2024-03-29T12:28:19;11.80;99.90
5556;DHT22;2801;50.972;7.856;2024-03-29T12:30:47;11.90;99.90
5556;DHT22;2801;50.972;7.856;2024-03-29T12:33:21;11.80;99.90
5556;DHT22;2801;50.972;7.856;2024-03-29T12:35:52;11.70;99.90
5556;DHT22;2801;50.972;7.856;2024-03-29T12:38:21;11.80;99.90
5556;DHT22;2801;50.972;7.856;2024-03-29T12:40:49;11.60;99.90
5556;DHT22;2801;50.972;7.856;2024-03-29T12:43:21;11.40;99.90
5556;DHT22;2801;50.972;7.856;2024-03-29T12:45:49;11.40;99.90
5556;DHT22;2801;50.972;7.856;2024-03-29T12:48:18;11.40;99.90
5556;DHT22;2801;50.972;7.856;2024-03-29T12:50:50;11.30;99.90
5556;DHT22;2801;50.972;7.856;2024-03-29T12:53:17;11.20;99.90
5556;DHT22;2801;50.972;7.856;2024-03-29T12:55:45;11.10;99.90
5556;DHT22;2801;50.972;7.856;2024-03-29T12:58:13;10.80;99.90
5556;DHT22;2801;50.972;7.856;2024-03-29T13:00:42;10.50;99.90
5556;DHT22;2801;50.972;7.856;2024-03-29T13:03:09;10.30;99.90
5556;DHT22;2801;50.972;7.856;2024-03-29T13:05:36;10.20;99.90
5556;DHT22;2801;50.972;7.856;2024-03-29T13:08:13;10.10;99.90
5556;DHT22;2801;50.972;7.856;2024-03-29T13:10:44;10.00;99.90
5556;DHT22;2801;50.972;7.856;2024-03-29T13:13:10;10.00;99.90
5556;DHT22;2801;50.972;7.856;2024-03-29T13:15:38;10.00;99.90
5556;DHT22;2801;50.972;7.856;2024-03-29T13:18:05;9.80;99.90
5556;DHT22;2801;50.972;7.856;2024-03-29T13:20:35;9.70;99.90
5556;DHT22;2801;50.972;7.856;2024-03-29T13:23:08;9.70;99.90
5556;DHT22;2801;50.972;7.856;2024-03-29T13:25:35;9.80;99.90
5556;DHT22;2801;50.972;7.856;2024-03-29T13:28:01;9.70;99.90
5556;DHT22;2801;50.972;7.856;2024-03-29T13:30:27;9.70;99.90
5556;DHT22;2801;50.972;7.856;2024-03-29T13:32:54;9.70;99.90
5556;DHT22;2801;50.972;7.856;2024-03-29T13:35:21;9.80;99.90
5556;DHT22;2801;50.972;7.856;2024-03-29T13:37:50;9.70;99.90
5556;DHT22;2801;50.972;7.856;2024-03-29T13:40:20;9.70;99.90
5556;DHT22;2801;50.972;7.856;2024-03-29T13:42:47;9.70;99.90
5556;DHT22;2801;50.972;7.856;2024-03-29T13:45:15;9.80;99.90
5556;DHT22;2801;50.972;7.856;2024-03-29T13:47:43;9.80;99.90
5556;DHT22;2801;50.972;7.856;2024-03-29T13:50:12;9.80;99.90
5556;DHT22;2801;50.972;7.856;2024-03-29T13:52:41;9.80;99.90
5556;DHT22;2801;50.972;7.856;2024-03-29T13:55:09;9.80;99.90
5556;DHT22;2801;50.972;7.856;2024-03-29T13:57:36;9.80;99.90
5556;DHT22;2801;50.972;7.856;2024-03-29T14:00:03;9.80;99.90
5556;DHT22;2801;50.972;7.856;2024-03-29T14:02:33;9.70;99.90
5556;DHT22;2801;50.972;7.856;2024-03-29T14:04:59;9.80;99.90
5556;DHT22;2801;50.972;7.856;2024-03-29T14:07:25;9.70;99.90
5556;DHT22;2801;50.972;7.856;2024-03-29T14:09:52;9.80;99.90
5556;DHT22;2801;50.972;7.856;2024-03-29T14:12:19;9.80;99.90
5556;DHT22;2801;50.972;7.856;2024-03-29T14:14:48;9.80;99.90
5556;DHT22;2801;50.972;7.856;2024-03-29T14:17:17;9.90;99.90
5556;DHT22;2801;50.972;7.856;2024-03-29T14:19:44;10.00;99.90
5556;DHT22;2801;50.972;7.856;2024-03-29T14:22:11;9.90;99.90
5556;DHT22;2801;50.972;7.856;2024-03-29T14:24:41;9.90;99.90
5556;DHT22;2801;50.972;7.856;2024-03-29T14:27:08;10.00;99.90
5556;DHT22;2801;50.972;7.856;2024-03-29T14:29:35;10.00;99.90
5556;DHT22;2801;50.972;7.856;2024-03-29T14:32:02;10.00;99.90
5556;DHT22;2801;50.972;7.856;2024-03-29T14:34:28;10.10;99.90
5556;DHT22;2801;50.972;7.856;2024-03-29T14:36:58;10.30;99.90
5556;DHT22;2801;50.972;7.856;2024-03-29T14:39:24;10.50;99.90
5556;DHT22;2801;50.972;7.856;2024-03-29T14:41:51;10.50;99.90
5556;DHT22;2801;50.972;7.856;2024-03-29T14:44:19;10.70;99.90
5556;DHT22;2801;50.972;7.856;2024-03-29T14:46:47;10.80;99.90
5556;DHT22;2801;50.972;7.856;2024-03-29T14:49:14;10.60;99.90
5556;DHT22;2801;50.972;7.856;2024-03-29T14:51:43;10.60;99.90
5556;DHT22;2801;50.972;7.856;2024-03-29T14:54:10;10.60;99.90
5556;DHT22;2801;50.972;7.856;2024-03-29T14:56:37;10.50;99.90
5556;DHT22;2801;50.972;7.856;2024-03-29T14:59:04;10.60;99.90
5556;DHT22;2801;50.972;7.856;2024-03-29T15:01:32;10.60;99.90
5556;DHT22;2801;50.972;7.856;2024-03-29T15:03:59;10.60;99.90
5556;DHT22;2801;50.972;7.856;2024-03-29T15:06:25;10.60;99.90
5556;DHT22;2801;50.972;7.856;2024-03-29T15:08:55;10.70;99.90
5556;DHT22;2801;50.972;7.856;2024-03-29T15:11:24;10.80;99.90
5556;DHT22;2801;50.972;7.856;2024-03-29T15:13:51;10.90;99.90
5556;DHT22;2801;50.972;7.856;2024-03-29T15:16:18;10.90;99.90
5556;DHT22;2801;50.972;7.856;2024-03-29T15:18:44;11.00;99.90
5556;DHT22;2801;50.972;7.856;2024-03-29T15:21:12;11.10;99.90
5556;DHT22;2801;50.972;7.856;2024-03-29T15:23:39;11.10;99.90
5556;DHT22;2801;50.972;7.856;2024-03-29T15:26:05;11.00;99.90
5556;DHT22;2801;50.972;7.856;2024-03-29T15:28:32;11.20;99.90
5556;DHT22;2801;50.972;7.856;2024-03-29T15:31:19;11.20;99.90
5556;DHT22;2801;50.972;7.856;2024-03-29T15:33:51;11.10;99.90
5556;DHT22;2801;50.972;7.856;2024-03-29T15:36:19;11.10;99.90
5556;DHT22;2801;50.972;7.856;2024-03-29T15:38:47;11.00;99.90
5556;DHT22;2801;50.972;7.856;2024-03-29T15:41:20;11.00;99.90
5556;DHT22;2801;50.972;7.856;2024-03-29T15:43:46;10.90;99.90
5556;DHT22;2801;50.972;7.856;2024-03-29T15:46:12;10.80;99.90
5556;DHT22;2801;50.972;7.856;2024-03-29T15:48:39;10.80;99.90
5556;DHT22;2801;50.972;7.856;2024-03-29T15:51:08;10.70;99.90
5556;DHT22;2801;50.972;7.856;2024-03-29T15:53:37;10.70;99.90
5556;DHT22;2801;50.972;7.856;2024-03-29T15:56:04;10.60;99.90
5556;DHT22;2801;50.972;7.856;2024-03-29T15:58:31;10.60;99.90
5556;DHT22;2801;50.972;7.856;2024-03-29T16:00:57;10.50;99.90
5556;DHT22;2801;50.972;7.856;2024-03-29T16:03:23;10.40;99.90
5556;DHT22;2801;50.972;7.856;2024-03-29T16:05:49;10.30;99.90
5556;DHT22;2801;50.972;7.856;2024-03-29T16:08:16;10.20;99.90
5556;DHT22;2801;50.972;7.856;2024-03-29T16:10:57;10.20;99.90
5556;DHT22;2801;50.972;7.856;2024-03-29T16:13:31;10.10;99.90
5556;DHT22;2801;50.972;7.856;2024-03-29T16:16:00;10.10;99.90
5556;DHT22;2801;50.972;7.856;2024-03-29T16:18:29;10.00;99.90
5556;DHT22;2801;50.972;7.856;2024-03-29T16:20:56;10.00;99.90
5556;DHT22;2801;50.972;7.856;2024-03-29T16:23:37;10.00;99.90
5556;DHT22;2801;50.972;7.856;2024-03-29T16:26:03;9.90;99.90